Terminal Aerodrome Forecast
Issued by NWS

Home | Current Version | Previous Version | Text Only | Print | Product List | Glossary On
Versions: 1 2 3 4 5 6 7 8 9 10 11 12 13 14 15 16 17 18 19 20 21
000
FTAK31 PAFA 241439 AAC
TAFAOM
TAF AMD
PAOM 241439Z 2415/2512 07016G21KT P6SM FEW008 SCT025
      TEMPO 2415/2416 OVC002
     FM241800 06020G30KT 2SM -RA BR BKN008 OVC015
     FM250400 11017G23KT 6SM -RA BR OVC015=

USA.gov is the U.S. government's official web portal to all federal, state and local government web resources and services.